createdAt,value
2023-02-06T00:02:59.986Z,21.13
2023-02-06T00:08:07.214Z,17.77
2023-02-06T00:13:12.247Z,22.17
2023-02-06T00:18:19.867Z,18.77
2023-02-06T00:23:24.801Z,20.90
2023-02-06T00:28:29.838Z,19.93
2023-02-06T00:33:38.653Z,19.93
2023-02-06T00:38:43.933Z,24.90
2023-02-06T00:43:49.070Z,21.20
2023-02-06T00:48:56.890Z,21.23
2023-02-06T00:54:01.800Z,23.20
2023-02-06T00:59:06.919Z,26.43
2023-02-06T01:04:14.406Z,19.53
2023-02-06T01:09:19.391Z,21.73
2023-02-06T01:14:24.712Z,19.93
2023-02-06T01:19:32.377Z,19.33
2023-02-06T01:24:37.387Z,18.87
2023-02-06T01:29:42.630Z,16.37
2023-02-06T01:34:50.214Z,17.17
2023-02-06T01:39:56.945Z,15.37
2023-02-06T01:45:37.744Z,19.13
2023-02-06T01:50:49.594Z,18.83
2023-02-06T01:55:57.268Z,17.33
2023-02-06T02:01:03.798Z,15.63
2023-02-06T02:06:14.910Z,17.10
2023-02-06T02:11:23.322Z,15.43
2023-02-06T02:16:35.847Z,16.17
2023-02-06T02:22:27.613Z,17.93
2023-02-06T02:28:08.237Z,15.27
2023-02-06T02:33:29.021Z,15.47
2023-02-06T02:38:48.105Z,18.87
2023-02-06T02:43:58.945Z,17.27
2023-02-06T02:49:07.617Z,20.87
2023-02-06T02:54:16.166Z,17.93
2023-02-06T02:59:26.905Z,18.23
2023-02-06T03:04:37.880Z,17.23
2023-02-06T03:09:56.167Z,14.17
2023-02-06T03:15:06.756Z,17.93
2023-02-06T03:20:14.570Z,13.30
2023-02-06T03:25:31.260Z,15.10
2023-02-06T03:30:38.997Z,17.23
2023-02-06T03:35:45.232Z,14.47
2023-02-06T03:40:54.362Z,16.93
2023-02-06T03:46:03.006Z,13.23
2023-02-06T03:51:14.878Z,19.47
2023-02-06T03:56:30.981Z,16.30
2023-02-06T04:01:36.192Z,13.73
2023-02-06T04:06:41.113Z,13.20
2023-02-06T04:11:49.203Z,15.40
2023-02-06T04:16:54.513Z,15.33
2023-02-06T04:21:59.909Z,17.47
2023-02-06T04:27:07.528Z,17.57
2023-02-06T04:32:12.708Z,18.23
2023-02-06T04:37:17.679Z,16.37
2023-02-06T04:42:26.172Z,15.00
2023-02-06T04:47:31.136Z,14.73
2023-02-06T04:52:36.334Z,16.33
2023-02-06T04:57:44.068Z,15.10
2023-02-06T05:02:49.243Z,13.10
2023-02-06T05:07:54.103Z,18.67
2023-02-06T05:13:01.532Z,18.43
2023-02-06T05:18:07.649Z,16.90
2023-02-06T05:23:12.922Z,16.03
2023-02-06T05:28:21.387Z,14.83
2023-02-06T05:33:26.732Z,16.43
2023-02-06T05:38:33.479Z,18.37
2023-02-06T05:43:41.032Z,22.13
2023-02-06T05:48:45.922Z,25.13
2023-02-06T05:53:51.024Z,20.97
2023-02-06T05:58:58.635Z,17.63
2023-02-06T06:04:03.583Z,20.87
2023-02-06T06:09:08.748Z,18.20
2023-02-06T06:14:16.673Z,18.37
2023-02-06T06:19:21.804Z,17.17
2023-02-06T06:24:28.097Z,22.80
2023-02-06T06:29:42.080Z,21.23
2023-02-06T06:34:48.574Z,27.30
2023-02-06T06:39:58.154Z,27.50
2023-02-06T06:45:05.765Z,28.63
2023-02-06T06:50:11.400Z,27.17
2023-02-06T06:55:17.447Z,23.40
2023-02-06T07:00:25.158Z,22.63
2023-02-06T07:05:30.228Z,19.57
2023-02-06T07:10:35.137Z,24.53
2023-02-06T07:15:42.683Z,56.93
2023-02-06T07:20:48.342Z,18.57
2023-02-06T07:25:54.073Z,19.57
2023-02-06T07:31:03.240Z,17.00
2023-02-06T07:36:12.228Z,18.40
2023-02-06T07:41:18.459Z,17.83
2023-02-06T07:46:29.345Z,17.07
2023-02-06T07:51:34.464Z,16.50
2023-02-06T07:56:40.196Z,23.43
2023-02-06T08:01:48.079Z,21.73
2023-02-06T08:06:54.009Z,23.13
2023-02-06T08:11:58.942Z,15.17
2023-02-06T08:17:07.745Z,17.63
2023-02-06T08:22:12.657Z,19.10
2023-02-06T08:27:18.005Z,15.50
2023-02-06T08:32:28.721Z,17.87
2023-02-06T08:37:35.109Z,18.53
2023-02-06T08:42:40.228Z,19.97
2023-02-06T08:47:48.867Z,19.40
2023-02-06T08:52:53.741Z,16.97
2023-02-06T08:58:00.475Z,19.13
2023-02-06T09:03:08.381Z,19.13
2023-02-06T09:08:13.481Z,21.47
2023-02-06T09:13:18.460Z,18.93
2023-02-06T09:18:26.192Z,20.47
2023-02-06T09:23:31.293Z,19.70
2023-02-06T09:28:36.807Z,20.77
2023-02-06T09:33:44.348Z,24.67
2023-02-06T09:38:56.138Z,20.63
2023-02-06T09:44:04.482Z,19.33
2023-02-06T09:49:18.176Z,20.97
2023-02-06T09:54:34.195Z,31.30
2023-02-06T09:59:48.393Z,34.97
2023-02-06T10:05:01.525Z,21.27
2023-02-06T10:10:14.296Z,20.67
2023-02-06T10:15:24.471Z,26.17
2023-02-06T10:20:36.254Z,27.57
2023-02-06T10:25:53.688Z,19.77
2023-02-06T10:31:11.441Z,31.17
2023-02-06T10:36:37.678Z,18.73
2023-02-06T10:41:51.518Z,21.50
2023-02-06T10:46:57.984Z,27.77
2023-02-06T10:52:17.410Z,23.50
2023-02-06T10:57:25.100Z,25.43
2023-02-06T11:02:58.173Z,27.37
2023-02-06T11:08:38.507Z,15.30
2023-02-06T11:13:46.634Z,23.10
2023-02-06T11:18:54.434Z,16.50
2023-02-06T11:24:16.712Z,18.43
2023-02-06T11:29:24.408Z,21.03
2023-02-06T11:34:37.812Z,17.53
2023-02-06T11:39:48.424Z,16.83
2023-02-06T11:45:04.150Z,20.30
2023-02-06T11:50:29.211Z,20.70
2023-02-06T11:55:38.310Z,14.13
2023-02-06T12:00:46.266Z,17.93
2023-02-06T12:05:51.688Z,17.13
2023-02-06T12:11:07.745Z,15.27
2023-02-06T12:16:19.150Z,16.43
2023-02-06T12:21:34.662Z,22.17
2023-02-06T12:26:43.855Z,18.90
2023-02-06T12:31:56.239Z,17.63
2023-02-06T12:37:14.149Z,16.40
2023-02-06T12:42:45.627Z,14.33
2023-02-06T12:47:56.550Z,15.43
2023-02-06T12:53:07.858Z,19.43
2023-02-06T12:58:54.710Z,12.93
2023-02-06T13:04:01.779Z,9.53
2023-02-06T13:09:09.595Z,12.17
2023-02-06T13:14:26.293Z,15.20
2023-02-06T13:19:56.515Z,11.40
2023-02-06T13:25:01.898Z,9.23
2023-02-06T13:30:41.746Z,10.07
2023-02-06T13:36:11.566Z,7.83
2023-02-06T13:41:31.560Z,8.70
2023-02-06T13:52:36.593Z,12.40
2023-02-06T13:58:20.198Z,8.27
2023-02-06T14:03:43.146Z,9.90
2023-02-06T14:09:03.189Z,14.87
2023-02-06T14:14:28.482Z,9.90
2023-02-06T14:19:41.735Z,12.37
2023-02-06T14:25:13.650Z,12.80
2023-02-06T14:30:30.214Z,19.53
2023-02-06T14:35:55.596Z,10.67
2023-02-06T14:41:04.225Z,15.73
2023-02-06T14:46:16.655Z,14.13
2023-02-06T14:51:26.826Z,15.83
2023-02-06T14:56:37.167Z,13.80
2023-02-06T15:01:42.933Z,13.80
2023-02-06T15:06:54.597Z,17.13
2023-02-06T15:12:04.734Z,15.37
2023-02-06T15:17:09.682Z,13.73
2023-02-06T15:22:17.912Z,17.50
2023-02-06T15:27:30.936Z,15.47
2023-02-06T15:32:37.956Z,12.07
2023-02-06T15:37:43.626Z,14.37
2023-02-06T15:42:51.787Z,15.83
2023-02-06T15:47:58.371Z,16.80
2023-02-06T15:53:03.315Z,15.23
2023-02-06T15:58:17.269Z,14.87
2023-02-06T16:03:25.723Z,13.20
2023-02-06T16:08:34.872Z,16.80
2023-02-06T16:13:42.875Z,15.20
2023-02-06T16:18:51.965Z,19.80
2023-02-06T16:24:07.765Z,16.70
2023-02-06T16:29:29.688Z,18.43
2023-02-06T16:34:39.037Z,23.03
2023-02-06T16:39:45.896Z,17.90
2023-02-06T16:44:55.626Z,18.90
2023-02-06T16:50:00.535Z,17.90
2023-02-06T16:55:05.625Z,17.60
2023-02-06T17:00:20.651Z,16.00
2023-02-06T17:05:31.704Z,20.53
2023-02-06T17:10:39.729Z,17.57
2023-02-06T17:15:49.334Z,21.10
2023-02-06T17:20:56.364Z,20.20
2023-02-06T17:26:02.385Z,21.43
2023-02-06T17:31:10.450Z,24.37
2023-02-06T17:36:21.977Z,19.70
2023-02-06T17:41:28.032Z,22.67
2023-02-06T17:46:35.676Z,21.90
2023-02-06T17:51:42.300Z,26.03
2023-02-06T17:56:47.174Z,27.13
2023-02-06T18:01:54.822Z,33.00
2023-02-06T18:07:00.175Z,25.03
2023-02-06T18:12:05.453Z,24.87
2023-02-06T18:17:13.835Z,24.47
2023-02-06T18:22:21.912Z,22.73
2023-02-06T18:27:27.151Z,23.47
2023-02-06T18:32:37.117Z,24.53
2023-02-06T18:37:43.322Z,25.40
2023-02-06T18:42:54.769Z,24.70
2023-02-06T18:48:02.381Z,30.67
2023-02-06T18:53:07.897Z,26.60
2023-02-06T18:58:15.824Z,27.77
2023-02-06T19:03:23.362Z,30.23
2023-02-06T19:08:28.336Z,35.60
2023-02-06T19:13:34.407Z,30.40
2023-02-06T19:18:43.107Z,33.30
2023-02-06T19:23:50.458Z,29.43
2023-02-06T19:28:56.058Z,29.87
2023-02-06T19:34:06.311Z,38.20
2023-02-06T19:39:14.125Z,34.53
2023-02-06T19:44:19.142Z,30.17
2023-02-06T19:49:28.252Z,32.60
2023-02-06T19:54:33.298Z,34.47
2023-02-06T19:59:38.646Z,32.23
2023-02-06T20:04:47.365Z,30.00
2023-02-06T20:09:52.695Z,27.63
2023-02-06T20:14:58.137Z,34.27
2023-02-06T20:20:08.012Z,30.67
2023-02-06T20:25:13.691Z,29.03
2023-02-06T20:30:23.338Z,27.23
2023-02-06T20:35:32.394Z,28.67
2023-02-06T20:40:39.969Z,31.13
2023-02-06T20:45:46.372Z,34.20
2023-02-06T20:50:59.621Z,36.80
2023-02-06T20:56:04.543Z,38.00
2023-02-06T21:01:15.770Z,30.53
2023-02-06T21:06:23.791Z,35.20
2023-02-06T21:11:30.524Z,32.80
2023-02-06T21:16:37.699Z,33.73
2023-02-06T21:21:46.459Z,33.47
2023-02-06T21:26:52.220Z,37.17
2023-02-06T21:32:12.264Z,33.70
2023-02-06T21:37:22.631Z,35.77
2023-02-06T21:42:27.631Z,44.57
2023-02-06T21:47:34.881Z,35.10
2023-02-06T21:52:42.404Z,37.40
2023-02-06T21:57:47.413Z,35.00
2023-02-06T22:02:52.321Z,37.27
2023-02-06T22:07:59.902Z,37.60
2023-02-06T22:13:04.825Z,44.37
2023-02-06T22:18:10.560Z,31.30
2023-02-06T22:23:20.315Z,38.13
2023-02-06T22:28:25.188Z,36.97
2023-02-06T22:33:30.143Z,28.43
2023-02-06T22:38:38.621Z,32.33
2023-02-06T22:43:43.908Z,30.37
2023-02-06T22:48:48.950Z,31.70
2023-02-06T22:53:56.723Z,32.33
2023-02-06T22:59:03.748Z,34.70
2023-02-06T23:04:10.664Z,32.73
2023-02-06T23:09:20.590Z,31.47
2023-02-06T23:14:26.538Z,34.73
2023-02-06T23:19:31.921Z,32.77
2023-02-06T23:24:39.788Z,36.43
2023-02-06T23:29:44.689Z,32.27
2023-02-06T23:34:49.692Z,33.37
2023-02-06T23:39:57.276Z,30.13
2023-02-06T23:45:02.309Z,30.80
2023-02-06T23:50:08.225Z,34.33
2023-02-06T23:55:15.843Z,30.47
